sensor_id;sensor_type;location;lat;lon;timestamp;P1;durP1;ratioP1;P2;durP2;ratioP2
59024;SDS011;44806;48.008;13.666;2022-07-05T00:01:04;0.82;;;0.50;;
59024;SDS011;44806;48.008;13.666;2022-07-05T00:03:40;1.05;;;0.55;;
59024;SDS011;44806;48.008;13.666;2022-07-05T00:06:10;2.10;;;0.60;;
59024;SDS011;44806;48.008;13.666;2022-07-05T00:08:38;1.73;;;0.60;;
59024;SDS011;44806;48.008;13.666;2022-07-05T00:11:06;2.17;;;0.60;;
59024;SDS011;44806;48.008;13.666;2022-07-05T00:13:33;0.85;;;0.50;;
59024;SDS011;44806;48.008;13.666;2022-07-05T00:16:01;1.50;;;0.55;;
59024;SDS011;44806;48.008;13.666;2022-07-05T00:18:30;0.80;;;0.40;;
59024;SDS011;44806;48.008;13.666;2022-07-05T00:20:57;2.75;;;0.70;;
59024;SDS011;44806;48.008;13.666;2022-07-05T00:23:25;0.80;;;0.50;;
59024;SDS011;44806;48.008;13.666;2022-07-05T00:25:53;1.90;;;0.55;;
59024;SDS011;44806;48.008;13.666;2022-07-05T00:28:28;2.58;;;0.60;;
59024;SDS011;44806;48.008;13.666;2022-07-05T00:30:55;0.75;;;0.43;;
59024;SDS011;44806;48.008;13.666;2022-07-05T00:33:26;0.75;;;0.40;;
59024;SDS011;44806;48.008;13.666;2022-07-05T00:35:55;2.00;;;0.57;;
59024;SDS011;44806;48.008;13.666;2022-07-05T00:38:23;1.35;;;0.40;;
59024;SDS011;44806;48.008;13.666;2022-07-05T00:40:50;1.27;;;0.40;;
59024;SDS011;44806;48.008;13.666;2022-07-05T00:43:18;0.95;;;0.40;;
59024;SDS011;44806;48.008;13.666;2022-07-05T00:45:46;0.70;;;0.30;;
59024;SDS011;44806;48.008;13.666;2022-07-05T00:48:13;1.20;;;0.40;;
59024;SDS011;44806;48.008;13.666;2022-07-05T00:50:41;3.67;;;0.40;;
59024;SDS011;44806;48.008;13.666;2022-07-05T00:53:10;1.95;;;0.40;;
59024;SDS011;44806;48.008;13.666;2022-07-05T00:55:38;1.48;;;0.30;;
59024;SDS011;44806;48.008;13.666;2022-07-05T00:58:12;1.58;;;0.40;;
59024;SDS011;44806;48.008;13.666;2022-07-05T01:00:47;1.17;;;0.50;;
59024;SDS011;44806;48.008;13.666;2022-07-05T01:03:17;1.55;;;0.50;;
59024;SDS011;44806;48.008;13.666;2022-07-05T01:05:48;0.50;;;0.35;;
59024;SDS011;44806;48.008;13.666;2022-07-05T01:08:17;1.00;;;0.30;;
59024;SDS011;44806;48.008;13.666;2022-07-05T01:10:45;1.25;;;0.30;;
59024;SDS011;44806;48.008;13.666;2022-07-05T01:13:15;0.95;;;0.47;;
59024;SDS011;44806;48.008;13.666;2022-07-05T01:15:42;1.08;;;0.32;;
59024;SDS011;44806;48.008;13.666;2022-07-05T01:18:15;1.55;;;0.50;;
59024;SDS011;44806;48.008;13.666;2022-07-05T01:20:46;1.52;;;0.50;;
59024;SDS011;44806;48.008;13.666;2022-07-05T01:23:16;1.10;;;0.38;;
59024;SDS011;44806;48.008;13.666;2022-07-05T01:25:46;2.95;;;0.30;;
59024;SDS011;44806;48.008;13.666;2022-07-05T01:28:14;1.55;;;0.40;;
59024;SDS011;44806;48.008;13.666;2022-07-05T01:30:42;2.03;;;0.50;;
59024;SDS011;44806;48.008;13.666;2022-07-05T01:33:11;2.08;;;0.45;;
59024;SDS011;44806;48.008;13.666;2022-07-05T01:35:39;0.90;;;0.40;;
59024;SDS011;44806;48.008;13.666;2022-07-05T01:38:06;1.95;;;0.65;;
59024;SDS011;44806;48.008;13.666;2022-07-05T01:40:38;1.92;;;0.30;;
59024;SDS011;44806;48.008;13.666;2022-07-05T01:43:05;2.05;;;0.30;;
59024;SDS011;44806;48.008;13.666;2022-07-05T01:45:33;1.30;;;0.38;;
59024;SDS011;44806;48.008;13.666;2022-07-05T01:48:12;2.27;;;0.60;;
59024;SDS011;44806;48.008;13.666;2022-07-05T01:50:45;3.47;;;0.60;;
59024;SDS011;44806;48.008;13.666;2022-07-05T01:53:17;1.02;;;0.50;;
59024;SDS011;44806;48.008;13.666;2022-07-05T01:55:47;1.35;;;0.50;;
59024;SDS011;44806;48.008;13.666;2022-07-05T01:58:17;0.90;;;0.50;;
59024;SDS011;44806;48.008;13.666;2022-07-05T02:00:45;2.08;;;0.55;;
59024;SDS011;44806;48.008;13.666;2022-07-05T02:03:15;1.08;;;0.35;;
59024;SDS011;44806;48.008;13.666;2022-07-05T02:05:43;2.15;;;0.80;;
59024;SDS011;44806;48.008;13.666;2022-07-05T02:08:12;0.95;;;0.43;;
59024;SDS011;44806;48.008;13.666;2022-07-05T02:10:41;2.65;;;0.40;;
59024;SDS011;44806;48.008;13.666;2022-07-05T02:13:12;3.08;;;0.60;;
59024;SDS011;44806;48.008;13.666;2022-07-05T02:15:41;1.40;;;0.50;;
59024;SDS011;44806;48.008;13.666;2022-07-05T02:18:11;1.27;;;0.47;;
59024;SDS011;44806;48.008;13.666;2022-07-05T02:20:39;1.55;;;0.60;;
59024;SDS011;44806;48.008;13.666;2022-07-05T02:23:07;3.22;;;0.52;;
59024;SDS011;44806;48.008;13.666;2022-07-05T02:25:35;2.75;;;0.50;;
59024;SDS011;44806;48.008;13.666;2022-07-05T02:28:03;1.80;;;0.60;;
59024;SDS011;44806;48.008;13.666;2022-07-05T02:30:37;2.15;;;0.57;;
59024;SDS011;44806;48.008;13.666;2022-07-05T02:33:04;1.20;;;0.50;;
59024;SDS011;44806;48.008;13.666;2022-07-05T02:35:35;1.65;;;0.43;;
59024;SDS011;44806;48.008;13.666;2022-07-05T02:38:02;2.53;;;0.52;;
59024;SDS011;44806;48.008;13.666;2022-07-05T02:40:30;2.90;;;0.60;;
59024;SDS011;44806;48.008;13.666;2022-07-05T02:42:58;1.45;;;0.57;;
59024;SDS011;44806;48.008;13.666;2022-07-05T02:45:25;0.85;;;0.40;;
59024;SDS011;44806;48.008;13.666;2022-07-05T02:47:54;1.25;;;0.50;;
59024;SDS011;44806;48.008;13.666;2022-07-05T02:50:25;3.00;;;0.50;;
59024;SDS011;44806;48.008;13.666;2022-07-05T02:52:53;1.40;;;0.50;;
59024;SDS011;44806;48.008;13.666;2022-07-05T02:55:23;1.13;;;0.40;;
59024;SDS011;44806;48.008;13.666;2022-07-05T02:57:51;2.45;;;0.50;;
59024;SDS011;44806;48.008;13.666;2022-07-05T03:00:21;1.38;;;0.52;;
59024;SDS011;44806;48.008;13.666;2022-07-05T03:02:49;1.60;;;0.60;;
59024;SDS011;44806;48.008;13.666;2022-07-05T03:05:18;3.45;;;1.15;;
59024;SDS011;44806;48.008;13.666;2022-07-05T03:07:46;1.58;;;0.60;;
59024;SDS011;44806;48.008;13.666;2022-07-05T03:10:13;1.67;;;0.55;;
59024;SDS011;44806;48.008;13.666;2022-07-05T03:12:47;0.95;;;0.43;;
59024;SDS011;44806;48.008;13.666;2022-07-05T03:15:17;1.30;;;0.50;;
59024;SDS011;44806;48.008;13.666;2022-07-05T03:17:44;2.13;;;0.55;;
59024;SDS011;44806;48.008;13.666;2022-07-05T03:20:12;3.33;;;0.70;;
59024;SDS011;44806;48.008;13.666;2022-07-05T03:22:41;1.42;;;0.65;;
59024;SDS011;44806;48.008;13.666;2022-07-05T03:25:09;1.83;;;0.50;;
59024;SDS011;44806;48.008;13.666;2022-07-05T03:27:40;1.58;;;0.60;;
59024;SDS011;44806;48.008;13.666;2022-07-05T03:30:08;1.63;;;0.60;;
59024;SDS011;44806;48.008;13.666;2022-07-05T03:32:37;1.85;;;0.63;;
59024;SDS011;44806;48.008;13.666;2022-07-05T03:35:07;0.93;;;0.60;;
59024;SDS011;44806;48.008;13.666;2022-07-05T03:37:34;2.40;;;0.70;;
59024;SDS011;44806;48.008;13.666;2022-07-05T03:40:04;2.88;;;0.82;;
59024;SDS011;44806;48.008;13.666;2022-07-05T03:42:35;1.75;;;0.80;;
59024;SDS011;44806;48.008;13.666;2022-07-05T03:45:03;1.77;;;0.80;;
59024;SDS011;44806;48.008;13.666;2022-07-05T03:47:34;2.83;;;0.85;;
59024;SDS011;44806;48.008;13.666;2022-07-05T03:50:02;2.33;;;0.80;;
59024;SDS011;44806;48.008;13.666;2022-07-05T03:52:32;3.10;;;0.80;;
59024;SDS011;44806;48.008;13.666;2022-07-05T03:55:00;2.30;;;0.75;;
59024;SDS011;44806;48.008;13.666;2022-07-05T03:57:29;1.98;;;1.00;;
59024;SDS011;44806;48.008;13.666;2022-07-05T03:59:57;2.70;;;0.70;;
59024;SDS011;44806;48.008;13.666;2022-07-05T04:02:29;4.78;;;0.70;;
59024;SDS011;44806;48.008;13.666;2022-07-05T04:04:59;2.35;;;0.80;;
59024;SDS011;44806;48.008;13.666;2022-07-05T04:07:29;3.53;;;1.10;;
59024;SDS011;44806;48.008;13.666;2022-07-05T04:09:57;2.65;;;0.80;;
59024;SDS011;44806;48.008;13.666;2022-07-05T04:12:24;2.08;;;0.90;;
59024;SDS011;44806;48.008;13.666;2022-07-05T04:14:56;2.47;;;0.82;;
59024;SDS011;44806;48.008;13.666;2022-07-05T04:17:24;2.58;;;0.90;;
59024;SDS011;44806;48.008;13.666;2022-07-05T04:19:51;1.75;;;0.80;;
59024;SDS011;44806;48.008;13.666;2022-07-05T04:22:22;2.85;;;1.02;;
59024;SDS011;44806;48.008;13.666;2022-07-05T04:24:50;2.28;;;1.00;;
59024;SDS011;44806;48.008;13.666;2022-07-05T04:27:36;2.17;;;1.17;;
59024;SDS011;44806;48.008;13.666;2022-07-05T04:30:08;3.13;;;0.93;;
59024;SDS011;44806;48.008;13.666;2022-07-05T04:32:42;3.60;;;1.23;;
59024;SDS011;44806;48.008;13.666;2022-07-05T04:35:10;2.72;;;1.10;;
59024;SDS011;44806;48.008;13.666;2022-07-05T04:37:41;2.88;;;1.00;;
59024;SDS011;44806;48.008;13.666;2022-07-05T04:40:09;3.83;;;1.30;;
59024;SDS011;44806;48.008;13.666;2022-07-05T04:42:39;3.72;;;1.27;;
59024;SDS011;44806;48.008;13.666;2022-07-05T04:45:07;3.25;;;1.40;;
59024;SDS011;44806;48.008;13.666;2022-07-05T04:47:36;3.58;;;1.45;;
59024;SDS011;44806;48.008;13.666;2022-07-05T04:50:15;2.03;;;0.98;;
59024;SDS011;44806;48.008;13.666;2022-07-05T04:52:46;2.88;;;1.20;;
59024;SDS011;44806;48.008;13.666;2022-07-05T04:55:16;4.22;;;1.10;;
59024;SDS011;44806;48.008;13.666;2022-07-05T04:57:48;3.58;;;1.40;;
59024;SDS011;44806;48.008;13.666;2022-07-05T05:00:16;2.22;;;1.00;;
59024;SDS011;44806;48.008;13.666;2022-07-05T05:02:44;2.85;;;1.05;;
59024;SDS011;44806;48.008;13.666;2022-07-05T05:05:13;2.72;;;1.10;;
59024;SDS011;44806;48.008;13.666;2022-07-05T05:07:41;2.22;;;0.85;;
59024;SDS011;44806;48.008;13.666;2022-07-05T05:10:09;4.82;;;1.20;;
59024;SDS011;44806;48.008;13.666;2022-07-05T05:12:38;3.38;;;1.00;;
59024;SDS011;44806;48.008;13.666;2022-07-05T05:15:07;2.88;;;0.80;;
59024;SDS011;44806;48.008;13.666;2022-07-05T05:17:36;2.75;;;1.00;;
59024;SDS011;44806;48.008;13.666;2022-07-05T05:20:05;2.20;;;0.90;;
59024;SDS011;44806;48.008;13.666;2022-07-05T05:22:36;4.78;;;1.20;;
59024;SDS011;44806;48.008;13.666;2022-07-05T05:25:04;2.05;;;0.93;;
59024;SDS011;44806;48.008;13.666;2022-07-05T05:27:42;2.47;;;1.10;;
59024;SDS011;44806;48.008;13.666;2022-07-05T05:30:12;2.45;;;0.93;;
59024;SDS011;44806;48.008;13.666;2022-07-05T05:32:40;4.65;;;1.20;;
59024;SDS011;44806;48.008;13.666;2022-07-05T05:35:08;2.65;;;0.93;;
59024;SDS011;44806;48.008;13.666;2022-07-05T05:37:46;2.88;;;0.90;;
59024;SDS011;44806;48.008;13.666;2022-07-05T05:40:15;3.03;;;1.00;;
59024;SDS011;44806;48.008;13.666;2022-07-05T05:42:45;3.08;;;1.15;;
59024;SDS011;44806;48.008;13.666;2022-07-05T05:45:14;3.05;;;1.27;;
59024;SDS011;44806;48.008;13.666;2022-07-05T05:47:46;3.42;;;1.10;;
59024;SDS011;44806;48.008;13.666;2022-07-05T05:50:18;3.80;;;1.27;;
59024;SDS011;44806;48.008;13.666;2022-07-05T05:52:46;3.47;;;1.27;;
59024;SDS011;44806;48.008;13.666;2022-07-05T05:55:15;4.75;;;1.23;;
59024;SDS011;44806;48.008;13.666;2022-07-05T05:57:45;2.55;;;1.00;;
59024;SDS011;44806;48.008;13.666;2022-07-05T06:00:20;2.50;;;1.00;;
59024;SDS011;44806;48.008;13.666;2022-07-05T06:02:52;2.55;;;1.10;;
59024;SDS011;44806;48.008;13.666;2022-07-05T06:05:20;1.75;;;0.70;;
59024;SDS011;44806;48.008;13.666;2022-07-05T06:07:50;2.15;;;0.80;;
59024;SDS011;44806;48.008;13.666;2022-07-05T06:10:19;3.05;;;1.10;;
59024;SDS011;44806;48.008;13.666;2022-07-05T06:12:51;2.88;;;1.10;;
59024;SDS011;44806;48.008;13.666;2022-07-05T06:15:21;3.75;;;1.20;;
59024;SDS011;44806;48.008;13.666;2022-07-05T06:17:49;2.15;;;1.17;;
59024;SDS011;44806;48.008;13.666;2022-07-05T06:20:21;3.53;;;1.10;;
59024;SDS011;44806;48.008;13.666;2022-07-05T06:22:50;2.22;;;1.00;;
59024;SDS011;44806;48.008;13.666;2022-07-05T06:25:22;3.42;;;0.98;;
59024;SDS011;44806;48.008;13.666;2022-07-05T06:27:50;2.33;;;0.85;;
59024;SDS011;44806;48.008;13.666;2022-07-05T06:30:24;2.38;;;1.02;;
59024;SDS011;44806;48.008;13.666;2022-07-05T06:32:58;1.92;;;0.90;;
59024;SDS011;44806;48.008;13.666;2022-07-05T06:35:32;3.17;;;1.00;;
59024;SDS011;44806;48.008;13.666;2022-07-05T06:38:03;2.30;;;1.00;;
59024;SDS011;44806;48.008;13.666;2022-07-05T06:40:33;3.05;;;0.98;;
59024;SDS011;44806;48.008;13.666;2022-07-05T06:43:02;2.95;;;0.82;;
59024;SDS011;44806;48.008;13.666;2022-07-05T06:45:33;2.95;;;0.85;;
59024;SDS011;44806;48.008;13.666;2022-07-05T06:48:02;2.50;;;0.98;;
59024;SDS011;44806;48.008;13.666;2022-07-05T06:50:31;3.38;;;1.10;;
59024;SDS011;44806;48.008;13.666;2022-07-05T06:53:04;4.00;;;0.82;;
59024;SDS011;44806;48.008;13.666;2022-07-05T06:55:33;1.65;;;0.75;;
59024;SDS011;44806;48.008;13.666;2022-07-05T06:58:09;3.00;;;1.20;;
59024;SDS011;44806;48.008;13.666;2022-07-05T07:00:39;1.90;;;0.90;;
59024;SDS011;44806;48.008;13.666;2022-07-05T07:03:07;4.80;;;1.20;;
59024;SDS011;44806;48.008;13.666;2022-07-05T07:05:34;4.28;;;2.20;;
59024;SDS011;44806;48.008;13.666;2022-07-05T07:08:02;4.55;;;1.70;;
59024;SDS011;44806;48.008;13.666;2022-07-05T07:10:50;3.75;;;1.48;;
59024;SDS011;44806;48.008;13.666;2022-07-05T07:13:23;4.63;;;1.60;;
59024;SDS011;44806;48.008;13.666;2022-07-05T07:15:52;5.93;;;1.80;;
59024;SDS011;44806;48.008;13.666;2022-07-05T07:18:20;5.30;;;2.20;;
59024;SDS011;44806;48.008;13.666;2022-07-05T07:20:47;5.80;;;2.17;;
59024;SDS011;44806;48.008;13.666;2022-07-05T07:23:15;4.47;;;1.95;;
59024;SDS011;44806;48.008;13.666;2022-07-05T07:25:45;4.63;;;2.00;;
59024;SDS011;44806;48.008;13.666;2022-07-05T07:28:19;5.78;;;2.25;;
59024;SDS011;44806;48.008;13.666;2022-07-05T07:30:47;5.50;;;2.40;;
59024;SDS011;44806;48.008;13.666;2022-07-05T07:33:16;5.75;;;3.33;;
59024;SDS011;44806;48.008;13.666;2022-07-05T07:35:45;5.15;;;2.65;;
59024;SDS011;44806;48.008;13.666;2022-07-05T07:38:16;6.38;;;2.67;;
59024;SDS011;44806;48.008;13.666;2022-07-05T07:40:43;4.03;;;1.85;;
59024;SDS011;44806;48.008;13.666;2022-07-05T07:43:11;5.28;;;2.08;;
59024;SDS011;44806;48.008;13.666;2022-07-05T07:45:38;9.55;;;2.83;;
59024;SDS011;44806;48.008;13.666;2022-07-05T07:48:08;4.05;;;1.48;;
59024;SDS011;44806;48.008;13.666;2022-07-05T07:50:37;2.60;;;1.25;;
59024;SDS011;44806;48.008;13.666;2022-07-05T07:53:05;2.97;;;1.20;;
59024;SDS011;44806;48.008;13.666;2022-07-05T07:55:34;2.80;;;1.00;;
59024;SDS011;44806;48.008;13.666;2022-07-05T07:58:02;3.28;;;1.13;;
59024;SDS011;44806;48.008;13.666;2022-07-05T08:00:30;3.80;;;1.10;;
59024;SDS011;44806;48.008;13.666;2022-07-05T08:02:58;3.25;;;1.23;;
59024;SDS011;44806;48.008;13.666;2022-07-05T08:05:28;3.65;;;1.08;;
59024;SDS011;44806;48.008;13.666;2022-07-05T08:07:57;4.82;;;1.70;;
59024;SDS011;44806;48.008;13.666;2022-07-05T08:10:24;3.17;;;1.30;;
59024;SDS011;44806;48.008;13.666;2022-07-05T08:12:52;4.97;;;1.70;;
59024;SDS011;44806;48.008;13.666;2022-07-05T08:15:20;4.60;;;1.60;;
59024;SDS011;44806;48.008;13.666;2022-07-05T08:17:47;5.28;;;2.17;;
59024;SDS011;44806;48.008;13.666;2022-07-05T08:20:30;3.55;;;1.33;;
59024;SDS011;44806;48.008;13.666;2022-07-05T08:23:16;4.63;;;1.42;;
59024;SDS011;44806;48.008;13.666;2022-07-05T08:25:44;4.03;;;1.45;;
59024;SDS011;44806;48.008;13.666;2022-07-05T08:28:13;3.13;;;1.40;;
59024;SDS011;44806;48.008;13.666;2022-07-05T08:30:41;2.38;;;1.30;;
59024;SDS011;44806;48.008;13.666;2022-07-05T08:33:08;5.32;;;1.63;;
59024;SDS011;44806;48.008;13.666;2022-07-05T08:35:36;3.25;;;1.70;;
59024;SDS011;44806;48.008;13.666;2022-07-05T08:38:07;3.75;;;1.40;;
59024;SDS011;44806;48.008;13.666;2022-07-05T08:40:39;3.53;;;1.67;;
59024;SDS011;44806;48.008;13.666;2022-07-05T08:43:10;2.58;;;1.30;;
59024;SDS011;44806;48.008;13.666;2022-07-05T08:45:40;3.05;;;1.38;;
59024;SDS011;44806;48.008;13.666;2022-07-05T08:48:13;3.40;;;1.48;;
59024;SDS011;44806;48.008;13.666;2022-07-05T08:50:43;2.75;;;1.40;;
59024;SDS011;44806;48.008;13.666;2022-07-05T08:53:14;7.95;;;1.90;;
59024;SDS011;44806;48.008;13.666;2022-07-05T08:55:43;3.05;;;1.50;;
59024;SDS011;44806;48.008;13.666;2022-07-05T08:58:12;4.85;;;2.00;;
59024;SDS011;44806;48.008;13.666;2022-07-05T09:00:40;7.47;;;2.20;;
59024;SDS011;44806;48.008;13.666;2022-07-05T09:03:09;3.45;;;1.42;;
59024;SDS011;44806;48.008;13.666;2022-07-05T09:05:41;4.13;;;1.52;;
59024;SDS011;44806;48.008;13.666;2022-07-05T09:08:14;4.13;;;1.55;;
59024;SDS011;44806;48.008;13.666;2022-07-05T09:10:50;4.18;;;1.73;;
59024;SDS011;44806;48.008;13.666;2022-07-05T09:13:18;3.53;;;1.70;;
59024;SDS011;44806;48.008;13.666;2022-07-05T09:15:47;4.45;;;1.60;;
59024;SDS011;44806;48.008;13.666;2022-07-05T09:21:10;3.30;;;1.38;;
59024;SDS011;44806;48.008;13.666;2022-07-05T09:23:39;3.83;;;1.60;;
59024;SDS011;44806;48.008;13.666;2022-07-05T09:26:09;3.15;;;1.55;;
59024;SDS011;44806;48.008;13.666;2022-07-05T09:28:37;3.05;;;1.50;;
59024;SDS011;44806;48.008;13.666;2022-07-05T09:31:25;3.30;;;1.60;;
59024;SDS011;44806;48.008;13.666;2022-07-05T09:33:56;3.88;;;1.70;;
59024;SDS011;44806;48.008;13.666;2022-07-05T09:36:47;3.33;;;1.77;;
59024;SDS011;44806;48.008;13.666;2022-07-05T09:39:19;4.20;;;1.75;;
59024;SDS011;44806;48.008;13.666;2022-07-05T09:42:10;3.55;;;1.70;;
59024;SDS011;44806;48.008;13.666;2022-07-05T09:44:41;2.90;;;1.50;;
59024;SDS011;44806;48.008;13.666;2022-07-05T09:47:13;4.82;;;1.95;;
59024;SDS011;44806;48.008;13.666;2022-07-05T09:49:43;3.58;;;1.80;;
59024;SDS011;44806;48.008;13.666;2022-07-05T09:52:25;4.63;;;1.77;;
59024;SDS011;44806;48.008;13.666;2022-07-05T09:55:08;5.07;;;1.80;;
59024;SDS011;44806;48.008;13.666;2022-07-05T09:57:39;3.67;;;1.65;;
59024;SDS011;44806;48.008;13.666;2022-07-05T10:00:11;3.47;;;1.63;;
59024;SDS011;44806;48.008;13.666;2022-07-05T10:02:39;3.33;;;1.63;;
59024;SDS011;44806;48.008;13.666;2022-07-05T10:05:14;5.05;;;1.80;;
59024;SDS011;44806;48.008;13.666;2022-07-05T10:07:49;3.92;;;1.55;;
59024;SDS011;44806;48.008;13.666;2022-07-05T10:10:19;6.03;;;1.70;;
59024;SDS011;44806;48.008;13.666;2022-07-05T10:12:55;3.92;;;1.25;;
59024;SDS011;44806;48.008;13.666;2022-07-05T10:15:25;4.18;;;1.70;;
59024;SDS011;44806;48.008;13.666;2022-07-05T10:17:59;4.97;;;1.77;;
59024;SDS011;44806;48.008;13.666;2022-07-05T10:20:32;3.00;;;1.40;;
59024;SDS011;44806;48.008;13.666;2022-07-05T10:23:06;3.67;;;1.40;;
59024;SDS011;44806;48.008;13.666;2022-07-05T10:25:35;3.47;;;1.50;;
59024;SDS011;44806;48.008;13.666;2022-07-05T10:28:08;3.30;;;1.45;;
59024;SDS011;44806;48.008;13.666;2022-07-05T10:30:37;4.32;;;1.40;;
59024;SDS011;44806;48.008;13.666;2022-07-05T10:33:05;3.00;;;1.20;;
59024;SDS011;44806;48.008;13.666;2022-07-05T10:35:36;3.65;;;1.60;;
59024;SDS011;44806;48.008;13.666;2022-07-05T10:38:05;3.28;;;1.63;;
59024;SDS011;44806;48.008;13.666;2022-07-05T10:40:37;5.03;;;1.50;;
59024;SDS011;44806;48.008;13.666;2022-07-05T10:43:08;2.70;;;1.30;;
59024;SDS011;44806;48.008;13.666;2022-07-05T10:45:39;3.22;;;1.13;;
59024;SDS011;44806;48.008;13.666;2022-07-05T10:48:19;2.67;;;1.30;;
59024;SDS011;44806;48.008;13.666;2022-07-05T10:50:49;3.33;;;1.40;;
59024;SDS011;44806;48.008;13.666;2022-07-05T10:53:20;3.97;;;1.30;;
59024;SDS011;44806;48.008;13.666;2022-07-05T10:55:53;2.53;;;1.13;;
59024;SDS011;44806;48.008;13.666;2022-07-05T10:58:31;3.97;;;1.45;;
59024;SDS011;44806;48.008;13.666;2022-07-05T11:04:18;2.35;;;1.05;;
59024;SDS011;44806;48.008;13.666;2022-07-05T11:06:55;2.58;;;1.30;;
59024;SDS011;44806;48.008;13.666;2022-07-05T11:09:28;3.90;;;1.30;;
59024;SDS011;44806;48.008;13.666;2022-07-05T11:12:04;3.00;;;1.20;;
59024;SDS011;44806;48.008;13.666;2022-07-05T11:14:35;3.03;;;1.30;;
59024;SDS011;44806;48.008;13.666;2022-07-05T11:20:08;3.80;;;1.30;;
59024;SDS011;44806;48.008;13.666;2022-07-05T11:22:42;3.55;;;1.10;;
59024;SDS011;44806;48.008;13.666;2022-07-05T11:25:29;4.70;;;1.42;;
59024;SDS011;44806;48.008;13.666;2022-07-05T11:28:15;3.03;;;1.30;;
59024;SDS011;44806;48.008;13.666;2022-07-05T11:30:53;3.90;;;1.20;;
59024;SDS011;44806;48.008;13.666;2022-07-05T11:33:35;3.35;;;1.20;;
59024;SDS011;44806;48.008;13.666;2022-07-05T11:36:18;4.05;;;1.42;;
59024;SDS011;44806;48.008;13.666;2022-07-05T11:39:13;5.03;;;1.20;;
59024;SDS011;44806;48.008;13.666;2022-07-05T11:41:44;4.45;;;1.35;;
59024;SDS011;44806;48.008;13.666;2022-07-05T11:44:13;3.67;;;1.20;;
59024;SDS011;44806;48.008;13.666;2022-07-05T11:46:43;3.30;;;1.30;;
59024;SDS011;44806;48.008;13.666;2022-07-05T11:49:18;1.90;;;1.13;;
59024;SDS011;44806;48.008;13.666;2022-07-05T11:51:58;4.18;;;1.48;;
59024;SDS011;44806;48.008;13.666;2022-07-05T11:54:28;3.38;;;1.25;;
59024;SDS011;44806;48.008;13.666;2022-07-05T11:56:59;3.47;;;1.20;;
59024;SDS011;44806;48.008;13.666;2022-07-05T11:59:27;2.65;;;1.20;;
59024;SDS011;44806;48.008;13.666;2022-07-05T12:01:59;3.45;;;1.38;;
59024;SDS011;44806;48.008;13.666;2022-07-05T12:04:27;3.67;;;1.25;;
59024;SDS011;44806;48.008;13.666;2022-07-05T12:06:59;3.50;;;1.35;;
59024;SDS011;44806;48.008;13.666;2022-07-05T12:09:30;5.55;;;1.40;;
59024;SDS011;44806;48.008;13.666;2022-07-05T12:12:17;2.63;;;1.25;;
59024;SDS011;44806;48.008;13.666;2022-07-05T12:15:03;2.45;;;1.30;;
59024;SDS011;44806;48.008;13.666;2022-07-05T12:17:33;3.35;;;1.38;;
59024;SDS011;44806;48.008;13.666;2022-07-05T12:20:04;3.35;;;1.15;;
59024;SDS011;44806;48.008;13.666;2022-07-05T12:22:34;3.17;;;1.10;;
59024;SDS011;44806;48.008;13.666;2022-07-05T12:25:04;5.68;;;1.58;;
59024;SDS011;44806;48.008;13.666;2022-07-05T12:27:36;3.28;;;1.30;;
59024;SDS011;44806;48.008;13.666;2022-07-05T12:30:05;5.85;;;1.40;;
59024;SDS011;44806;48.008;13.666;2022-07-05T12:32:37;3.33;;;1.58;;
59024;SDS011;44806;48.008;13.666;2022-07-05T12:35:27;3.33;;;1.40;;
59024;SDS011;44806;48.008;13.666;2022-07-05T12:38:06;4.30;;;1.48;;
59024;SDS011;44806;48.008;13.666;2022-07-05T12:40:35;3.78;;;1.65;;
59024;SDS011;44806;48.008;13.666;2022-07-05T12:43:05;4.18;;;1.50;;
59024;SDS011;44806;48.008;13.666;2022-07-05T12:45:34;5.45;;;1.70;;
59024;SDS011;44806;48.008;13.666;2022-07-05T12:48:04;3.88;;;1.52;;
59024;SDS011;44806;48.008;13.666;2022-07-05T12:50:46;4.30;;;1.65;;
59024;SDS011;44806;48.008;13.666;2022-07-05T12:53:18;3.78;;;1.58;;
59024;SDS011;44806;48.008;13.666;2022-07-05T12:56:04;3.03;;;1.60;;
59024;SDS011;44806;48.008;13.666;2022-07-05T12:58:50;4.03;;;1.50;;
59024;SDS011;44806;48.008;13.666;2022-07-05T13:01:19;3.33;;;1.50;;
59024;SDS011;44806;48.008;13.666;2022-07-05T13:03:59;3.83;;;1.70;;
59024;SDS011;44806;48.008;13.666;2022-07-05T13:06:41;3.78;;;1.55;;
59024;SDS011;44806;48.008;13.666;2022-07-05T13:09:11;3.65;;;1.35;;
59024;SDS011;44806;48.008;13.666;2022-07-05T13:11:42;2.75;;;1.30;;
59024;SDS011;44806;48.008;13.666;2022-07-05T13:14:11;4.30;;;1.40;;
59024;SDS011;44806;48.008;13.666;2022-07-05T13:16:42;5.13;;;1.50;;
59024;SDS011;44806;48.008;13.666;2022-07-05T13:19:11;4.28;;;1.40;;
59024;SDS011;44806;48.008;13.666;2022-07-05T13:21:44;4.32;;;1.40;;
59024;SDS011;44806;48.008;13.666;2022-07-05T13:24:14;3.17;;;1.35;;
59024;SDS011;44806;48.008;13.666;2022-07-05T13:26:42;4.95;;;1.50;;
59024;SDS011;44806;48.008;13.666;2022-07-05T13:29:13;3.65;;;1.23;;
59024;SDS011;44806;48.008;13.666;2022-07-05T13:31:40;4.05;;;1.20;;
59024;SDS011;44806;48.008;13.666;2022-07-05T13:34:08;4.20;;;1.40;;
59024;SDS011;44806;48.008;13.666;2022-07-05T13:36:37;5.07;;;1.38;;
59024;SDS011;44806;48.008;13.666;2022-07-05T13:39:10;2.83;;;1.20;;
59024;SDS011;44806;48.008;13.666;2022-07-05T13:41:41;3.97;;;1.25;;
59024;SDS011;44806;48.008;13.666;2022-07-05T13:44:09;3.97;;;1.50;;
59024;SDS011;44806;48.008;13.666;2022-07-05T13:46:36;2.83;;;1.15;;
59024;SDS011;44806;48.008;13.666;2022-07-05T13:49:04;2.75;;;1.25;;
59024;SDS011;44806;48.008;13.666;2022-07-05T13:51:32;3.78;;;1.30;;
59024;SDS011;44806;48.008;13.666;2022-07-05T13:54:01;4.60;;;1.45;;
59024;SDS011;44806;48.008;13.666;2022-07-05T13:56:29;3.45;;;1.20;;
59024;SDS011;44806;48.008;13.666;2022-07-05T13:58:58;6.65;;;1.58;;
59024;SDS011;44806;48.008;13.666;2022-07-05T14:01:28;3.03;;;1.30;;
59024;SDS011;44806;48.008;13.666;2022-07-05T14:03:56;4.85;;;1.40;;
59024;SDS011;44806;48.008;13.666;2022-07-05T14:06:26;4.75;;;1.58;;
59024;SDS011;44806;48.008;13.666;2022-07-05T14:08:58;3.35;;;1.40;;
59024;SDS011;44806;48.008;13.666;2022-07-05T14:11:28;4.90;;;1.50;;
59024;SDS011;44806;48.008;13.666;2022-07-05T14:13:56;4.72;;;1.60;;
59024;SDS011;44806;48.008;13.666;2022-07-05T14:16:24;2.67;;;1.40;;
59024;SDS011;44806;48.008;13.666;2022-07-05T14:18:52;6.72;;;1.58;;
59024;SDS011;44806;48.008;13.666;2022-07-05T14:21:21;3.88;;;1.65;;
59024;SDS011;44806;48.008;13.666;2022-07-05T14:23:55;5.05;;;1.67;;
59024;SDS011;44806;48.008;13.666;2022-07-05T14:26:24;3.97;;;1.80;;
59024;SDS011;44806;48.008;13.666;2022-07-05T14:28:53;5.80;;;1.70;;
59024;SDS011;44806;48.008;13.666;2022-07-05T14:31:24;4.63;;;1.50;;
59024;SDS011;44806;48.008;13.666;2022-07-05T14:33:56;3.72;;;1.70;;
59024;SDS011;44806;48.008;13.666;2022-07-05T14:36:23;3.13;;;1.38;;
59024;SDS011;44806;48.008;13.666;2022-07-05T14:38:51;3.03;;;1.50;;
59024;SDS011;44806;48.008;13.666;2022-07-05T14:41:19;5.45;;;1.70;;
59024;SDS011;44806;48.008;13.666;2022-07-05T14:43:51;5.75;;;1.80;;
59024;SDS011;44806;48.008;13.666;2022-07-05T14:46:21;4.05;;;1.50;;
59024;SDS011;44806;48.008;13.666;2022-07-05T14:48:49;2.83;;;1.58;;
59024;SDS011;44806;48.008;13.666;2022-07-05T14:51:17;3.42;;;1.50;;
59024;SDS011;44806;48.008;13.666;2022-07-05T14:53:45;4.20;;;1.60;;
59024;SDS011;44806;48.008;13.666;2022-07-05T14:56:12;3.47;;;1.70;;
59024;SDS011;44806;48.008;13.666;2022-07-05T14:58:40;4.20;;;1.63;;
59024;SDS011;44806;48.008;13.666;2022-07-05T15:01:09;4.03;;;1.60;;
59024;SDS011;44806;48.008;13.666;2022-07-05T15:03:37;5.40;;;1.77;;